createdAt,value
2023-05-03T00:04:03.078Z,0.1
2023-05-03T00:09:13.331Z,0.2
2023-05-03T00:15:03.059Z,0
2023-05-03T00:20:03.422Z,0.2
2023-05-03T00:25:13.362Z,0
2023-05-03T00:31:03.110Z,0
2023-05-03T00:36:03.174Z,0
2023-05-03T00:41:13.570Z,0
2023-05-03T00:47:03.132Z,0
2023-05-03T00:52:13.340Z,0
2023-05-03T00:57:13.364Z,0
2023-05-03T01:03:03.181Z,0
2023-05-03T01:08:13.344Z,0
2023-05-03T01:13:13.345Z,0
2023-05-03T01:19:03.106Z,0
2023-05-03T01:24:03.077Z,0
2023-05-03T01:29:13.354Z,0
2023-05-03T01:34:13.346Z,0
2023-05-03T01:40:03.336Z,0
2023-05-03T01:45:13.349Z,0
2023-05-03T01:51:03.060Z,0
2023-05-03T01:56:03.072Z,0
2023-05-03T02:01:03.109Z,0
2023-05-03T02:06:03.117Z,0
2023-05-03T02:11:13.339Z,0
2023-05-03T02:16:13.368Z,0
2023-05-03T02:22:03.074Z,0
2023-05-03T02:27:13.369Z,0
2023-05-03T02:33:10.096Z,0
2023-05-03T02:38:13.368Z,0
2023-05-03T02:43:13.365Z,0
2023-05-03T02:49:03.074Z,0
2023-05-03T02:54:13.350Z,0
2023-05-03T03:00:03.198Z,0
2023-05-03T03:05:03.077Z,0
2023-05-03T03:10:13.360Z,0
2023-05-03T03:16:03.164Z,0
2023-05-03T03:21:03.079Z,0
2023-05-03T03:26:13.339Z,0
2023-05-03T03:31:13.402Z,0
2023-05-03T03:36:13.353Z,0
2023-05-03T03:42:03.119Z,0
2023-05-03T03:47:13.407Z,0
2023-05-03T03:52:13.359Z,0
2023-05-03T03:57:13.368Z,0
2023-05-03T04:03:05.187Z,0
2023-05-03T04:08:13.394Z,0
2023-05-03T04:14:03.089Z,0
2023-05-03T04:19:03.065Z,0
2023-05-03T04:24:13.347Z,0
2023-05-03T04:30:03.431Z,0
2023-05-03T04:35:13.357Z,0
2023-05-03T04:41:03.063Z,0
2023-05-03T04:57:03.107Z,0
2023-05-03T05:02:13.373Z,0
2023-05-03T05:08:03.070Z,0
2023-05-03T05:13:13.365Z,0
2023-05-03T05:18:13.403Z,0
2023-05-03T05:24:03.084Z,0
2023-05-03T05:29:13.348Z,0
2023-05-03T05:34:13.347Z,0
2023-05-03T05:39:13.361Z,0
2023-05-03T05:45:03.046Z,0.7
2023-05-03T05:50:05.858Z,1.7
2023-05-03T05:55:13.359Z,2.3
2023-05-03T06:01:03.059Z,3.6
2023-05-03T06:06:13.350Z,4.8
2023-05-03T06:11:13.366Z,3.7
2023-05-03T06:17:03.189Z,5.5
2023-05-03T06:22:03.118Z,7.1
2023-05-03T06:27:03.093Z,9
2023-05-03T06:32:13.350Z,7.5
2023-05-03T06:37:13.373Z,8.2
2023-05-03T06:42:13.375Z,8.1
2023-05-03T06:48:03.149Z,9.7
2023-05-03T06:53:03.091Z,9.5
2023-05-03T06:58:13.399Z,11.1
2023-05-03T07:04:03.120Z,12.4
2023-05-03T07:09:03.142Z,13.5
2023-05-03T07:14:13.351Z,13.6
2023-05-03T07:19:13.377Z,14.4
2023-05-03T07:24:13.386Z,13.1
2023-05-03T07:29:13.389Z,14.4
2023-05-03T07:34:13.410Z,15.4
2023-05-03T07:39:13.392Z,16.3
2023-05-03T07:45:03.148Z,16
2023-05-03T07:50:03.393Z,15.7
2023-05-03T07:55:13.369Z,14.9
2023-05-03T08:00:13.400Z,14.9
2023-05-03T08:06:03.157Z,15.1
2023-05-03T08:11:13.360Z,16.4
2023-05-03T08:16:13.425Z,17.1
2023-05-03T08:21:13.422Z,16.5
2023-05-03T08:27:03.107Z,16.7
2023-05-03T08:32:03.127Z,18.3
2023-05-03T08:37:13.375Z,18.5
2023-05-03T08:42:13.393Z,17.7
2023-05-03T08:48:03.127Z,17.1
2023-05-03T08:53:03.114Z,18.3
2023-05-03T08:58:03.123Z,18.1
2023-05-03T09:03:13.539Z,17.6
2023-05-03T09:08:13.422Z,16.8
2023-05-03T09:14:03.095Z,17.4
2023-05-03T09:19:03.123Z,17.3
2023-05-03T09:24:13.434Z,18.3
2023-05-03T09:30:03.344Z,18.4
2023-05-03T09:35:13.415Z,20.1
2023-05-03T09:40:13.410Z,20.4
2023-05-03T09:46:03.204Z,18.5
2023-05-03T09:51:13.444Z,18.8
2023-05-03T09:56:13.472Z,18.2
2023-05-03T10:02:03.172Z,19.2
2023-05-03T10:07:13.477Z,18.2
2023-05-03T10:13:03.149Z,18.4
2023-05-03T10:18:13.636Z,18.7
2023-05-03T10:29:03.403Z,18.6
2023-05-03T10:34:13.459Z,18.9
2023-05-03T10:40:03.424Z,19.2
2023-05-03T10:45:13.431Z,18.2
2023-05-03T10:51:03.152Z,19.1
2023-05-03T10:56:13.452Z,17.8
2023-05-03T11:02:03.586Z,17.9
2023-05-03T11:07:03.153Z,18.2
2023-05-03T11:12:13.419Z,18.2
2023-05-03T11:17:13.516Z,17.7
2023-05-03T11:22:13.639Z,18.2
2023-05-03T11:28:03.465Z,17.5
2023-05-03T11:33:13.485Z,17.9
2023-05-03T11:39:03.207Z,16.6
2023-05-03T11:44:17.849Z,16.6
2023-05-03T11:49:13.459Z,17.1
2023-05-03T11:55:03.479Z,16.5
2023-05-03T12:00:03.156Z,16.4
2023-05-03T12:15:16.054Z,17.1
2023-05-03T12:20:51.187Z,17.1
2023-05-03T12:26:05.239Z,17.5
2023-05-03T12:31:05.186Z,16.6
2023-05-03T12:36:14.902Z,17.5
2023-05-03T12:41:15.888Z,17.1
2023-05-03T12:47:03.759Z,16.8
2023-05-03T12:57:15.819Z,15.9
2023-05-03T13:08:09.353Z,16.6
2023-05-03T13:13:13.447Z,15.5
2023-05-03T13:18:13.519Z,14.9
2023-05-03T13:24:03.195Z,15.1
2023-05-03T13:29:03.214Z,15.1
2023-05-03T13:34:13.495Z,16.5
2023-05-03T13:39:13.511Z,16
2023-05-03T13:45:03.206Z,16.2
2023-05-03T13:50:13.478Z,16.3
2023-05-03T13:55:13.488Z,16.2
2023-05-03T14:00:13.482Z,15.6
2023-05-03T14:06:03.301Z,15.9
2023-05-03T14:11:13.649Z,15.3
2023-05-03T14:17:03.324Z,16.1
2023-05-03T14:22:03.248Z,15.4
2023-05-03T14:27:13.501Z,14.9
2023-05-03T14:33:03.296Z,15.6
2023-05-03T14:38:03.242Z,15.8
2023-05-03T14:43:13.700Z,15.6
2023-05-03T14:48:13.488Z,15.8
2023-05-03T14:53:13.508Z,15.7
2023-05-03T14:59:03.235Z,16
2023-05-03T15:04:03.255Z,15.3
2023-05-03T15:09:13.512Z,15.7
2023-05-03T15:15:03.227Z,15.6
2023-05-03T15:20:13.888Z,16
2023-05-03T15:31:13.540Z,15.7
2023-05-03T15:36:13.518Z,17
2023-05-03T15:41:13.521Z,15.6
2023-05-03T15:47:03.236Z,15.7
2023-05-03T15:52:13.497Z,17.6
2023-05-03T15:57:13.769Z,17.1
2023-05-03T16:02:13.531Z,17.4
2023-05-03T16:07:13.574Z,16
2023-05-03T16:13:03.340Z,17.4
2023-05-03T16:18:13.610Z,15.5
2023-05-03T16:24:03.277Z,15.6
2023-05-03T16:29:03.298Z,15.8
2023-05-03T16:34:13.520Z,18
2023-05-03T16:39:13.527Z,17.2
2023-05-03T16:44:13.540Z,17.6
2023-05-03T16:49:13.805Z,18
2023-05-03T16:55:03.279Z,17.9
2023-05-03T17:00:13.544Z,17.8
2023-05-03T17:06:04.067Z,17.8
2023-05-03T17:11:03.286Z,18
2023-05-03T17:21:03.414Z,17.3
2023-05-03T17:26:13.529Z,16.9
2023-05-03T17:31:13.613Z,16.9
2023-05-03T17:36:13.543Z,16.6
2023-05-03T17:42:03.300Z,17.4
2023-05-03T17:47:13.535Z,16.9
2023-05-03T17:53:03.283Z,16.5
2023-05-03T17:58:03.346Z,16.8
2023-05-03T18:03:13.624Z,16.2
2023-05-03T18:08:13.557Z,15
2023-05-03T18:14:03.294Z,14.4
2023-05-03T18:19:13.553Z,14.7
2023-05-03T18:24:13.541Z,14.2
2023-05-03T18:29:13.561Z,14.4
2023-05-03T18:35:03.578Z,14.9
2023-05-03T18:40:13.556Z,14.5
2023-05-03T18:46:03.343Z,13.3
2023-05-03T18:57:03.340Z,13.4
2023-05-03T19:02:03.359Z,13.4
2023-05-03T19:07:13.598Z,12.8
2023-05-03T19:13:03.429Z,12.6
2023-05-03T19:18:14.838Z,11.1
2023-05-03T19:24:03.352Z,11.4
2023-05-03T19:29:13.587Z,11.5
2023-05-03T19:35:03.351Z,10.6
2023-05-03T19:40:03.556Z,11.8
2023-05-03T19:45:13.541Z,10.7
2023-05-03T19:50:13.591Z,10.3
2023-05-03T19:55:13.578Z,10.3
2023-05-03T20:00:13.608Z,10
2023-05-03T20:06:03.364Z,10
2023-05-03T20:11:13.590Z,9.2
2023-05-03T20:16:13.641Z,9.1
2023-05-03T20:22:03.393Z,9.2
2023-05-03T20:27:13.594Z,9.2
2023-05-03T20:33:03.403Z,10
2023-05-03T20:38:13.581Z,10
2023-05-03T20:43:13.598Z,10.8
2023-05-03T20:49:03.309Z,10.4
2023-05-03T20:54:13.600Z,9.1
2023-05-03T21:00:03.516Z,8.4
2023-05-03T21:05:03.310Z,8.6
2023-05-03T21:10:13.594Z,9.6
2023-05-03T21:21:03.318Z,9.7
2023-05-03T21:26:13.605Z,9.1
2023-05-03T21:31:13.651Z,9.5
2023-05-03T21:36:13.629Z,9.6
2023-05-03T21:42:03.309Z,9.5
2023-05-03T21:47:03.345Z,8.8
2023-05-03T21:52:13.605Z,8.5
2023-05-03T21:58:03.286Z,9.4
2023-05-03T22:03:03.422Z,9
2023-05-03T22:08:03.332Z,8.7
2023-05-03T22:13:13.629Z,8.7
2023-05-03T22:18:13.601Z,8.8
2023-05-03T22:23:13.628Z,8.6
2023-05-03T22:29:03.311Z,8.3
2023-05-03T22:34:13.672Z,8.1
2023-05-03T22:39:13.634Z,8.2
2023-05-03T22:45:03.353Z,7.8
2023-05-03T22:50:13.594Z,7.8
2023-05-03T22:56:03.309Z,7.8
2023-05-03T23:01:03.336Z,7.6
2023-05-03T23:06:03.323Z,7.7
2023-05-03T23:11:13.618Z,7.4
2023-05-03T23:16:13.633Z,7.4
2023-05-03T23:21:13.629Z,7.3
2023-05-03T23:26:13.632Z,6.9
2023-05-03T23:32:03.405Z,6.4
2023-05-03T23:37:03.412Z,6.4
2023-05-03T23:42:13.621Z,6.8
2023-05-03T23:48:03.403Z,6.5
2023-05-03T23:53:13.580Z,6.3
2023-05-03T23:58:13.600Z,6.3
